Lutz, FL (33548)

4:12 PM EST on February 10, 2016 (GMT -0500)
Old Reliable Groves, Lutz, FL | | Change Station
CLOSE
Current Station
Personal Weather Station
Location: Lutz, FL
Elevation: 69 ft
Nearby Weather Stations
Active Advisory: Frost Advisory

Elev 69 ft 28.12 °N, 82.47 °W | Updated 3 seconds ago

Clear
Clear
53.1 °F
Feels Like 53.1 °F
N
4.9
Wind Variable Wind from SE
Gusts 7.0 mph

Today
High -- | Low -- °F
--% Chance of Precip.
Yesterday
High -- | Low -- °F
Precip. -- in
Pressure 30.23 in
Visibility 10.0 miles
Clouds Few 6000 ft
Few 25000 ft
Dew Point 35 °F
Humidity 51%
Rainfall 0.00 in
Snow Depth Not available.
7:11 AM 6:16 PM
Waxing Crescent, 7% visible
METAR KTPA 102053Z 29012G20KT 10SM FEW060 FEW250 12/01 A3023 RMK AO2 SLP236 T01220006 55004
Pressure 30.23 in
Visibility 10.0 miles
Clouds Few 6000 ft
Few 25000 ft
Dew Point 35 °F
Humidity 51%
Rainfall 0.00 in
Snow Depth Not available.
7:11 AM 6:16 PM
Waxing Crescent, 7% visible
METAR KTPA 102053Z 29012G20KT 10SM FEW060 FEW250 12/01 A3023 RMK AO2 SLP236 T01220006 55004

10-Day Weather Forecast

Almanac

Astronomy

Feb. 10, 2016 Rise Set
Actual Time
Civil Twilight
Nautical Twilight
Astronomical Twilight
Moon
Length of Visible Light
Length of Day
Tomorrow will be .
, % of the Moon is Illuminated

Today's Extremes

State Highs State Lows

Community

WunderPhotos

Upload Photos

1,891,949 photos uploaded!

WunderBlog® & News

Nearby

Air Quality

  Air Quality AQ Index Pollutant
Not available.

Snow Depth

Station Depth Elevation

Earthquake Activity

City Distance Mag. Time & Date
Minimum magnitude displayed is 2.5.

Coastal Water Temperatures

Place Temperature

Stations

Nearby Weather Stations

Station Location Temp. Windchill Dew Point Humidity Wind Precip. Elev Updated Type
                   

Watches & Warnings

Frost Advisory
Issued: 2:43 PM EST Feb. 10, 2016 – National Weather Service

... Frost advisory in effect from 3 am to 9 am EST Thursday...

The National Weather Service in Tampa Bay area - Ruskin FL has
issued a frost advisory... which is in effect from 3 am to 9 am
EST Thursday.

* Temperature... 33 to 36

* impacts... sensitive plants may be killed

Precautionary/preparedness actions...

A frost advisory means that frost is possible. Sensitive outdoor
plants may be killed if left uncovered. Consider brining your pets
inside.